createdAt,value
2018-02-06T00:00:21.701Z,0.00
2018-02-06T00:01:21.630Z,0.00
2018-02-06T00:02:21.583Z,0.00
2018-02-06T00:03:21.540Z,0.00
2018-02-06T00:04:21.500Z,0.00
2018-02-06T00:05:21.473Z,0.00
2018-02-06T00:06:21.403Z,0.00
2018-02-06T00:07:21.358Z,0.00
2018-02-06T00:08:21.303Z,0.00
2018-02-06T00:09:21.261Z,0.00
2018-02-06T00:10:21.237Z,0.00
2018-02-06T00:11:21.168Z,0.00
2018-02-06T00:12:21.112Z,0.00
2018-02-06T00:13:21.072Z,0.00
2018-02-06T00:14:21.021Z,0.00
2018-02-06T00:15:20.978Z,0.00
2018-02-06T00:16:20.948Z,0.00
2018-02-06T00:17:20.878Z,0.00
2018-02-06T00:18:20.840Z,0.00
2018-02-06T00:19:20.784Z,0.00
2018-02-06T00:20:20.765Z,0.00
2018-02-06T00:21:20.694Z,0.00
2018-02-06T00:22:20.645Z,0.00
2018-02-06T00:23:20.596Z,0.00
2018-02-06T00:24:20.553Z,0.00
2018-02-06T00:25:20.525Z,0.00
2018-02-06T00:26:20.462Z,0.00
2018-02-06T00:27:20.410Z,0.00
2018-02-06T00:28:20.367Z,0.00
2018-02-06T00:29:20.310Z,0.00
2018-02-06T00:30:20.287Z,0.00
2018-02-06T00:31:20.218Z,0.00
2018-02-06T00:32:20.167Z,0.00
2018-02-06T00:33:20.122Z,0.00
2018-02-06T00:34:20.074Z,0.00
2018-02-06T00:35:20.050Z,0.00
2018-02-06T00:36:19.989Z,0.00
2018-02-06T00:37:19.938Z,0.00
2018-02-06T00:38:19.893Z,0.00
2018-02-06T00:39:19.846Z,0.00
2018-02-06T00:40:19.824Z,0.00
2018-02-06T00:41:19.743Z,0.00
2018-02-06T00:42:19.705Z,0.00
2018-02-06T00:43:19.652Z,0.00
2018-02-06T00:44:19.612Z,0.00
2018-02-06T00:45:19.582Z,0.00
2018-02-06T00:46:19.514Z,0.00
2018-02-06T00:47:19.464Z,0.00
2018-02-06T00:48:19.413Z,0.00
2018-02-06T00:49:19.368Z,0.00
2018-02-06T00:50:19.324Z,0.00
2018-02-06T00:51:19.299Z,0.00
2018-02-06T00:52:19.238Z,0.00
2018-02-06T00:53:19.188Z,0.00
2018-02-06T00:54:19.136Z,0.00
2018-02-06T00:55:19.081Z,0.00
2018-02-06T00:56:19.043Z,0.00
2018-02-06T00:57:19.022Z,0.00
2018-02-06T00:58:18.940Z,0.00
2018-02-06T00:59:18.895Z,0.00
2018-02-06T01:00:18.848Z,0.00
2018-02-06T01:01:18.797Z,0.00
2018-02-06T01:02:18.758Z,0.00
2018-02-06T01:03:18.733Z,0.00
2018-02-06T01:04:18.664Z,0.00
2018-02-06T01:05:18.610Z,0.00
2018-02-06T01:06:18.568Z,0.00
2018-02-06T01:07:18.515Z,0.00
2018-02-06T01:08:18.501Z,0.00
2018-02-06T01:09:18.420Z,0.00
2018-02-06T01:10:18.379Z,0.00
2018-02-06T01:11:18.328Z,0.00
2018-02-06T01:12:18.278Z,0.00
2018-02-06T01:13:18.228Z,0.00
2018-02-06T01:14:18.207Z,0.00
2018-02-06T01:15:18.134Z,0.00
2018-02-06T01:16:18.093Z,0.00
2018-02-06T01:17:18.053Z,0.00
2018-02-06T01:18:18.004Z,0.00
2018-02-06T01:19:17.972Z,0.00
2018-02-06T01:20:17.901Z,0.00
2018-02-06T01:21:17.856Z,0.00
2018-02-06T01:22:17.808Z,0.00
2018-02-06T01:23:17.757Z,0.00
2018-02-06T01:24:17.735Z,0.00
2018-02-06T01:25:17.667Z,0.00
2018-02-06T01:26:17.621Z,0.00
2018-02-06T01:27:17.563Z,0.00
2018-02-06T01:28:17.518Z,0.00
2018-02-06T01:29:17.467Z,0.00
2018-02-06T01:30:17.451Z,0.00
2018-02-06T01:31:17.382Z,0.00
2018-02-06T01:32:17.338Z,0.00
2018-02-06T01:33:17.287Z,0.00
2018-02-06T01:34:17.231Z,0.00
2018-02-06T01:35:17.214Z,0.00
2018-02-06T01:36:17.139Z,0.00
2018-02-06T01:37:17.096Z,0.00
2018-02-06T01:38:17.050Z,0.00
2018-02-06T01:39:17.001Z,0.00
2018-02-06T01:40:16.950Z,0.00
2018-02-06T01:41:16.933Z,0.00
2018-02-06T01:42:16.851Z,0.00
2018-02-06T01:43:16.810Z,0.00
2018-02-06T01:44:16.754Z,0.00
2018-02-06T01:45:16.708Z,0.00
2018-02-06T01:46:16.659Z,0.00
2018-02-06T01:47:16.640Z,0.00
2018-02-06T01:48:16.571Z,0.00
2018-02-06T01:49:16.524Z,0.00
2018-02-06T01:50:16.477Z,0.00
2018-02-06T01:51:16.428Z,0.00
2018-02-06T01:52:16.405Z,0.00
2018-02-06T01:53:16.325Z,0.00
2018-02-06T01:54:16.285Z,0.00
2018-02-06T01:55:16.231Z,0.00
2018-02-06T01:56:16.188Z,0.00
2018-02-06T01:57:16.162Z,0.00
2018-02-06T01:58:16.097Z,0.00
2018-02-06T01:59:16.041Z,0.00
2018-02-06T02:00:15.997Z,0.00
2018-02-06T02:01:15.944Z,0.00
2018-02-06T02:02:15.900Z,0.00
2018-02-06T02:03:15.880Z,0.00
2018-02-06T02:04:15.807Z,0.00
2018-02-06T02:05:15.760Z,0.00
2018-02-06T02:06:15.713Z,0.00
2018-02-06T02:07:15.665Z,0.00
2018-02-06T02:08:15.609Z,0.00
2018-02-06T02:09:15.597Z,0.00
2018-02-06T02:10:15.514Z,0.00
2018-02-06T02:11:15.464Z,0.00
2018-02-06T02:12:15.421Z,0.00
2018-02-06T02:13:15.377Z,0.00
2018-02-06T02:14:15.329Z,0.00
2018-02-06T02:15:15.306Z,0.00
2018-02-06T02:16:15.233Z,0.00
2018-02-06T02:17:15.188Z,0.00
2018-02-06T02:18:15.133Z,0.00
2018-02-06T02:19:15.091Z,0.00
2018-02-06T02:20:15.060Z,0.00
2018-02-06T02:21:14.990Z,0.00
2018-02-06T02:22:14.939Z,0.00
2018-02-06T02:23:14.899Z,0.00
2018-02-06T02:24:14.844Z,0.00
2018-02-06T02:25:14.832Z,0.00
2018-02-06T02:26:14.757Z,0.00
2018-02-06T02:27:14.702Z,0.00
2018-02-06T02:28:14.655Z,0.00
2018-02-06T02:29:14.611Z,0.00
2018-02-06T02:30:14.566Z,0.00
2018-02-06T02:31:14.542Z,0.00
2018-02-06T02:32:14.463Z,0.00
2018-02-06T02:33:14.416Z,0.00
2018-02-06T02:34:14.375Z,0.00
2018-02-06T02:35:14.326Z,0.00
2018-02-06T02:36:14.280Z,0.00
2018-02-06T02:37:14.252Z,0.00
2018-02-06T02:38:14.179Z,0.00
2018-02-06T02:39:14.139Z,0.00
2018-02-06T02:40:14.092Z,0.00
2018-02-06T02:41:14.035Z,0.00
2018-02-06T04:39:08.401Z,0.00
2018-02-06T04:40:08.355Z,0.00
2018-02-06T04:41:08.305Z,0.00
2018-02-06T04:42:08.250Z,0.00
2018-02-06T04:43:08.229Z,0.00
2018-02-06T04:44:08.156Z,0.00
2018-02-06T04:45:08.111Z,0.00
2018-02-06T04:46:08.066Z,0.00
2018-02-06T04:47:08.047Z,0.00
2018-02-06T04:48:07.966Z,0.00
2018-02-06T04:49:07.923Z,0.00
2018-02-06T04:50:07.869Z,0.00
2018-02-06T04:51:07.828Z,0.00
2018-02-06T04:52:07.778Z,0.00
2018-02-06T04:53:07.758Z,0.00
2018-02-06T04:54:07.678Z,0.00
2018-02-06T04:55:07.637Z,0.00
2018-02-06T04:56:07.581Z,0.00
2018-02-06T04:57:07.537Z,0.00
2018-02-06T04:58:07.518Z,0.00
2018-02-06T04:59:07.469Z,0.00
2018-02-06T05:00:07.404Z,0.00
2018-02-06T05:01:07.349Z,0.00
2018-02-06T05:02:07.305Z,0.00
2018-02-06T05:03:07.259Z,0.00
2018-02-06T05:04:07.203Z,0.00
2018-02-06T05:05:07.179Z,0.00
2018-02-06T05:06:07.107Z,0.00
2018-02-06T05:07:07.067Z,0.00
2018-02-06T05:08:07.017Z,0.00
2018-02-06T05:09:06.976Z,0.00
2018-02-06T05:10:06.947Z,0.00
2018-02-06T05:11:06.877Z,0.00
2018-02-06T05:12:06.826Z,0.00
2018-02-06T05:13:06.786Z,0.00
2018-02-06T05:14:06.740Z,0.00
2018-02-06T05:15:06.689Z,0.00
2018-02-06T05:16:06.659Z,0.00
2018-02-06T05:17:06.594Z,0.00
2018-02-06T05:18:06.538Z,0.00
2018-02-06T05:19:06.491Z,0.00
2018-02-06T05:20:06.442Z,0.00
2018-02-06T05:21:06.397Z,0.00
2018-02-06T05:22:06.373Z,0.00
2018-02-06T05:23:06.302Z,0.00
2018-02-06T05:24:06.264Z,0.00
2018-02-06T05:25:06.213Z,0.00
2018-02-06T05:26:06.170Z,0.00
2018-02-06T05:27:06.162Z,0.00
2018-02-06T05:28:06.062Z,0.00
2018-02-06T05:29:06.024Z,0.00
2018-02-06T05:30:05.975Z,0.00
2018-02-06T05:31:05.933Z,0.00
2018-02-06T05:32:05.877Z,0.00
2018-02-06T05:33:05.857Z,0.00
2018-02-06T05:34:05.774Z,0.00
2018-02-06T05:35:05.740Z,0.00
2018-02-06T05:36:05.687Z,0.00
2018-02-06T05:37:05.642Z,0.00
2018-02-06T05:38:05.619Z,0.00
2018-02-06T05:39:05.550Z,0.00
2018-02-06T05:40:05.493Z,0.00
2018-02-06T05:41:05.445Z,0.00
2018-02-06T05:42:05.398Z,0.00
2018-02-06T05:43:05.359Z,0.00
2018-02-06T05:44:05.329Z,0.00
2018-02-06T05:45:05.265Z,0.00
2018-02-06T05:46:05.206Z,0.00
2018-02-06T05:47:05.161Z,0.00
2018-02-06T05:48:05.114Z,0.00
2018-02-06T05:49:05.076Z,0.00
2018-02-06T05:50:05.049Z,0.00
2018-02-06T05:51:04.977Z,0.00
2018-02-06T05:52:04.930Z,0.00
2018-02-06T05:53:04.874Z,0.00
2018-02-06T05:54:04.831Z,0.00
2018-02-06T05:55:04.811Z,0.00
2018-02-06T05:56:04.744Z,0.00
2018-02-06T05:57:04.694Z,0.00
2018-02-06T05:58:04.647Z,0.00
2018-02-06T05:59:04.601Z,0.00
2018-02-06T06:00:04.550Z,0.00
2018-02-06T06:01:04.522Z,0.00
2018-02-06T06:02:04.460Z,0.00
2018-02-06T06:03:04.398Z,0.00
2018-02-06T06:04:04.389Z,0.00
2018-02-06T06:05:04.305Z,0.00
2018-02-06T06:06:04.264Z,0.00
2018-02-06T06:07:04.243Z,0.00
2018-02-06T06:08:04.175Z,0.00
2018-02-06T06:09:04.120Z,0.00
2018-02-06T06:10:04.080Z,0.00
2018-02-06T06:11:04.025Z,0.00
2018-02-06T06:12:03.976Z,0.00
2018-02-06T06:13:03.953Z,0.00
2018-02-06T06:14:03.887Z,0.00
2018-02-06T06:15:03.832Z,0.00
2018-02-06T06:16:03.794Z,0.00
2018-02-06T06:17:03.738Z,0.00
2018-02-06T06:18:03.689Z,0.00
2018-02-06T06:19:03.698Z,0.00
2018-02-06T06:20:03.601Z,0.00
2018-02-06T06:21:03.545Z,0.00
2018-02-06T06:22:03.507Z,0.00
2018-02-06T06:23:03.495Z,0.00
2018-02-06T06:24:03.462Z,0.00
2018-02-06T06:25:03.381Z,0.00
2018-02-06T06:26:03.315Z,0.00
2018-02-06T06:27:03.268Z,0.00
2018-02-06T06:28:03.221Z,0.00
2018-02-06T06:29:03.200Z,4.00
2018-02-06T06:30:03.125Z,0.00
2018-02-06T06:31:03.075Z,0.00
2018-02-06T06:32:03.026Z,4.00
2018-02-06T06:33:02.983Z,4.00
2018-02-06T06:34:02.936Z,4.00
2018-02-06T06:35:02.910Z,4.00
2018-02-06T06:36:02.839Z,4.00
2018-02-06T06:37:02.798Z,8.00
2018-02-06T06:38:02.747Z,8.00
2018-02-06T06:39:02.694Z,8.00
2018-02-06T06:40:02.652Z,12.00
2018-02-06T06:41:02.623Z,12.00
2018-02-06T06:42:02.556Z,16.00
2018-02-06T06:43:02.501Z,16.00
2018-02-06T06:44:02.467Z,20.00
2018-02-06T06:45:02.407Z,24.00
2018-02-06T06:46:02.392Z,28.00
2018-02-06T06:47:02.318Z,32.00
2018-02-06T06:48:02.272Z,40.00
2018-02-06T06:49:02.222Z,44.00
2018-02-06T06:50:02.175Z,52.00
2018-02-06T06:51:02.128Z,56.00
2018-02-06T06:52:02.107Z,64.00
2018-02-06T06:53:02.030Z,72.00
2018-02-06T06:54:01.982Z,84.00
2018-02-06T06:55:01.930Z,92.00
2018-02-06T06:56:01.925Z,108.00
2018-02-06T06:57:01.841Z,116.00
2018-02-06T06:58:01.826Z,132.00
2018-02-06T06:59:01.753Z,144.00
2018-02-06T07:00:01.704Z,160.00
2018-02-06T07:01:01.656Z,172.00
2018-02-06T07:02:01.602Z,192.00
2018-02-06T07:03:01.557Z,208.00
2018-02-06T07:04:01.541Z,224.00
2018-02-06T07:05:01.461Z,244.00
2018-02-06T07:06:01.414Z,264.00
2018-02-06T07:07:01.373Z,284.00
2018-02-06T07:08:01.326Z,308.00
2018-02-06T07:09:01.273Z,332.00
2018-02-06T07:10:01.251Z,352.00
2018-02-06T07:11:01.184Z,380.00
2018-02-06T07:12:01.130Z,404.00
2018-02-06T07:13:01.091Z,432.00
2018-02-06T07:14:01.043Z,456.00
2018-02-06T07:15:00.989Z,488.00
2018-02-06T07:16:00.990Z,516.00
2018-02-06T07:17:00.901Z,548.00
2018-02-06T07:18:00.854Z,584.00
2018-02-06T07:19:00.799Z,616.00
2018-02-06T07:20:00.760Z,656.00
2018-02-06T07:21:00.717Z,696.00
2018-02-06T07:22:00.684Z,736.00
2018-02-06T07:23:00.612Z,784.00
2018-02-06T07:24:00.566Z,832.00
2018-02-06T07:25:00.520Z,872.00
2018-02-06T07:26:00.478Z,912.00
2018-02-06T07:27:00.428Z,948.00
2018-02-06T07:28:00.412Z,988.00
2018-02-06T07:29:00.327Z,1036.00
2018-02-06T07:30:00.286Z,1092.00
2018-02-06T07:31:00.241Z,1148.00
2018-02-06T07:32:00.195Z,1204.00
2018-02-06T07:33:00.140Z,1260.00
2018-02-06T07:34:00.122Z,1324.00
2018-02-06T07:35:00.053Z,1388.00
2018-02-06T07:36:00.001Z,1452.00
2018-02-06T07:36:59.952Z,1520.00
2018-02-06T07:37:59.912Z,1580.00
2018-02-06T07:38:59.858Z,1644.00
2018-02-06T07:39:59.847Z,1704.00
2018-02-06T07:40:59.770Z,1768.00
2018-02-06T07:41:59.723Z,1828.00
2018-02-06T07:42:59.667Z,1872.00
2018-02-06T07:43:59.628Z,1940.00
2018-02-06T07:44:59.576Z,2028.00
2018-02-06T07:45:59.562Z,2164.00
2018-02-06T07:46:59.484Z,2232.00
2018-02-06T07:47:59.444Z,2288.00
2018-02-06T07:48:59.389Z,2336.00
2018-02-06T07:49:59.347Z,2368.00
2018-02-06T07:50:59.315Z,2380.00
2018-02-06T07:51:59.283Z,2384.00
2018-02-06T07:52:59.207Z,2200.00
2018-02-06T07:53:59.163Z,2064.00
2018-02-06T07:54:59.114Z,2012.00
2018-02-06T07:55:59.066Z,2012.00
2018-02-06T07:56:59.015Z,2028.00
2018-02-06T07:57:58.999Z,2036.00
2018-02-06T07:58:58.927Z,2016.00
2018-02-06T07:59:58.877Z,2040.00
2018-02-06T08:00:58.841Z,2084.00
2018-02-06T08:01:58.789Z,2120.00
2018-02-06T08:02:58.748Z,2168.00
2018-02-06T08:03:58.721Z,2224.00
2018-02-06T08:04:58.651Z,2264.00
2018-02-06T08:05:58.601Z,2292.00
2018-02-06T08:06:58.565Z,2328.00
2018-02-06T08:07:58.513Z,2380.00
2018-02-06T08:08:58.463Z,2452.00
2018-02-06T08:09:58.453Z,2532.00
2018-02-06T08:10:58.379Z,2608.00
2018-02-06T08:11:58.364Z,2664.00
2018-02-06T08:12:58.282Z,2732.00
2018-02-06T08:13:58.232Z,2784.00
2018-02-06T08:14:58.191Z,2812.00
2018-02-06T08:15:58.166Z,2868.00
2018-02-06T08:16:58.096Z,2944.00
2018-02-06T08:17:58.044Z,3040.00
2018-02-06T08:18:58.006Z,3148.00
2018-02-06T08:19:57.961Z,3212.00
2018-02-06T08:20:57.912Z,3372.00
2018-02-06T08:21:57.888Z,3428.00
2018-02-06T08:22:57.821Z,3564.00
2018-02-06T08:23:57.773Z,3656.00
2018-02-06T08:24:57.734Z,3672.00
2018-02-06T08:25:57.682Z,4212.00
2018-02-06T08:26:57.638Z,4448.00
2018-02-06T08:27:57.616Z,4580.00
2018-02-06T08:28:57.546Z,4720.00
2018-02-06T08:29:57.497Z,4980.00
2018-02-06T08:30:57.449Z,5288.00
2018-02-06T08:31:57.408Z,5412.00
2018-02-06T08:32:57.361Z,5668.00
2018-02-06T08:33:57.344Z,5792.00
2018-02-06T08:34:57.272Z,5640.00
2018-02-06T08:35:57.229Z,5204.00
2018-02-06T08:36:57.179Z,5432.00
2018-02-06T08:37:57.130Z,4364.00
2018-02-06T08:38:57.088Z,3928.00
2018-02-06T08:39:57.079Z,4152.00
2018-02-06T08:40:57.005Z,4692.00
2018-02-06T08:41:56.960Z,5120.00
2018-02-06T08:42:56.911Z,4676.00
2018-02-06T08:43:56.876Z,5656.00
2018-02-06T08:44:56.825Z,5456.00
2018-02-06T08:45:56.816Z,5872.00
2018-02-06T08:46:56.737Z,6000.00
2018-02-06T08:47:56.705Z,5896.00
2018-02-06T08:48:56.655Z,5720.00
2018-02-06T08:49:56.610Z,5740.00
2018-02-06T08:50:56.574Z,5700.00
2018-02-06T08:51:56.544Z,5316.00
2018-02-06T08:52:56.483Z,4920.00
2018-02-06T08:53:56.435Z,4516.00
2018-02-06T08:54:56.401Z,4376.00
2018-02-06T08:55:56.353Z,4436.00
2018-02-06T08:56:56.341Z,4604.00
2018-02-06T08:57:56.266Z,4848.00
2018-02-06T08:58:56.222Z,5408.00
2018-02-06T08:59:56.182Z,5940.00
2018-02-06T09:00:56.142Z,6792.00
2018-02-06T09:01:56.102Z,6860.00
2018-02-06T09:02:56.095Z,7008.00
2018-02-06T09:03:56.016Z,7172.00
2018-02-06T09:04:55.973Z,7296.00
2018-02-06T09:05:55.930Z,7244.00
2018-02-06T09:06:55.886Z,6892.00
2018-02-06T09:07:55.846Z,6456.00
2018-02-06T09:08:55.826Z,5840.00
2018-02-06T09:09:55.758Z,4024.00
2018-02-06T09:10:55.715Z,4264.00
2018-02-06T09:11:55.682Z,4220.00
2018-02-06T09:12:55.636Z,4452.00
2018-02-06T09:13:55.596Z,4988.00
2018-02-06T09:14:55.576Z,5624.00
2018-02-06T09:15:55.508Z,6992.00
2018-02-06T09:16:55.472Z,7472.00
2018-02-06T09:17:55.425Z,7476.00
2018-02-06T09:18:55.390Z,7284.00
2018-02-06T09:19:55.372Z,7208.00
2018-02-06T09:20:55.305Z,7184.00
2018-02-06T09:21:55.254Z,7480.00
2018-02-06T09:22:55.220Z,7612.00
2018-02-06T09:23:55.181Z,7480.00
2018-02-06T09:24:55.131Z,7964.00
2018-02-06T09:25:55.117Z,8044.00
2018-02-06T09:26:55.058Z,8076.00
2018-02-06T09:27:55.008Z,8136.00
2018-02-06T09:28:54.966Z,8224.00
2018-02-06T09:29:54.931Z,7552.00
2018-02-06T09:30:54.892Z,7948.00
2018-02-06T09:31:54.875Z,8288.00
2018-02-06T09:32:54.812Z,7952.00
2018-02-06T09:33:54.766Z,7860.00
2018-02-06T09:34:54.724Z,8544.00
2018-02-06T09:35:54.688Z,8648.00
2018-02-06T09:36:54.679Z,8756.00
2018-02-06T09:37:54.606Z,8776.00
2018-02-06T09:38:54.572Z,8788.00
2018-02-06T09:39:54.529Z,8844.00
2018-02-06T09:40:54.499Z,8956.00
2018-02-06T09:41:55.137Z,7832.00
2018-02-06T09:42:54.447Z,6832.00
2018-02-06T09:43:54.380Z,6204.00
2018-02-06T09:44:54.354Z,5324.00
2018-02-06T09:45:54.304Z,4964.00
2018-02-06T09:46:54.267Z,4744.00
2018-02-06T09:47:54.222Z,4636.00
2018-02-06T09:48:54.209Z,4788.00
2018-02-06T09:49:54.141Z,5044.00
2018-02-06T09:50:54.106Z,5436.00
2018-02-06T09:51:54.075Z,6076.00
2018-02-06T09:52:54.026Z,6740.00
2018-02-06T09:53:53.995Z,7320.00
2018-02-06T09:54:53.978Z,7676.00
2018-02-06T09:55:53.920Z,7780.00
2018-02-06T09:56:53.873Z,7764.00
2018-02-06T09:57:53.831Z,7784.00
2018-02-06T09:58:53.799Z,8076.00
2018-02-06T09:59:53.785Z,8244.00
2018-02-06T10:00:53.718Z,8256.00
2018-02-06T10:01:53.673Z,8304.00
2018-02-06T10:02:53.636Z,8352.00
2018-02-06T10:03:53.595Z,8320.00
2018-02-06T10:04:53.598Z,8260.00
2018-02-06T10:05:53.519Z,8208.00
2018-02-06T10:06:53.479Z,8252.00
2018-02-06T10:07:53.444Z,8208.00
2018-02-06T10:08:53.448Z,8224.00
2018-02-06T10:09:53.356Z,8312.00
2018-02-06T10:10:53.338Z,8292.00
2018-02-06T10:11:53.276Z,8296.00
2018-02-06T10:12:53.238Z,8388.00
2018-02-06T10:13:53.192Z,8696.00
2018-02-06T10:14:53.150Z,9012.00
2018-02-06T10:15:53.112Z,9128.00
2018-02-06T10:16:53.092Z,8848.00
2018-02-06T10:17:53.027Z,8416.00
2018-02-06T10:18:52.984Z,8156.00
2018-02-06T10:19:52.938Z,7968.00
2018-02-06T10:20:52.893Z,7860.00
2018-02-06T10:21:52.874Z,7740.00
2018-02-06T10:22:52.811Z,7640.00
2018-02-06T10:23:52.770Z,7548.00
2018-02-06T10:24:52.731Z,7560.00
2018-02-06T10:25:52.687Z,7648.00
2018-02-06T10:26:52.670Z,7664.00
2018-02-06T10:27:52.604Z,7544.00
2018-02-06T10:28:52.564Z,7372.00
2018-02-06T10:29:52.513Z,7236.00
2018-02-06T10:30:52.479Z,7108.00
2018-02-06T10:31:52.462Z,7016.00
2018-02-06T10:32:52.401Z,6996.00
2018-02-06T10:33:52.378Z,7024.00
2018-02-06T10:34:52.311Z,7116.00
2018-02-06T10:35:52.262Z,7240.00
2018-02-06T10:36:52.290Z,7352.00
2018-02-06T10:37:52.178Z,7392.00
2018-02-06T10:38:52.134Z,7400.00
2018-02-06T10:39:52.140Z,7304.00
2018-02-06T10:40:52.049Z,7172.00
2018-02-06T10:41:52.029Z,7092.00
2018-02-06T10:42:51.993Z,7092.00
2018-02-06T10:43:51.922Z,7072.00
2018-02-06T10:44:51.880Z,7028.00
2018-02-06T10:45:51.836Z,7020.00
2018-02-06T10:46:51.804Z,7020.00
2018-02-06T10:47:51.785Z,7060.00
2018-02-06T10:48:51.709Z,7112.00
2018-02-06T10:49:51.680Z,7208.00
2018-02-06T10:50:51.621Z,7272.00
2018-02-06T10:51:51.586Z,7216.00
2018-02-06T10:52:51.585Z,7024.00
2018-02-06T10:53:51.525Z,6840.00
2018-02-06T10:54:51.450Z,6728.00
2018-02-06T10:55:51.415Z,6752.00
2018-02-06T10:56:51.363Z,6860.00
2018-02-06T10:57:51.324Z,7008.00
2018-02-06T10:58:51.316Z,7168.00
2018-02-06T10:59:51.252Z,7332.00
2018-02-06T11:00:51.191Z,7512.00
2018-02-06T11:01:51.153Z,7652.00
2018-02-06T11:02:51.115Z,7796.00
2018-02-06T11:03:51.068Z,7868.00
2018-02-06T11:04:51.051Z,7836.00
2018-02-06T11:05:50.980Z,7692.00
2018-02-06T11:06:50.936Z,7532.00
2018-02-06T11:07:50.896Z,7440.00
2018-02-06T11:08:50.850Z,7352.00
2018-02-06T11:09:50.825Z,7372.00
2018-02-06T11:10:50.809Z,7416.00
2018-02-06T11:11:50.743Z,7488.00
2018-02-06T11:12:50.701Z,7604.00
2018-02-06T11:13:50.650Z,7784.00
2018-02-06T11:14:50.603Z,7912.00
2018-02-06T11:15:50.560Z,7912.00
2018-02-06T11:16:50.541Z,7856.00
2018-02-06T11:17:50.481Z,7840.00
2018-02-06T11:18:50.434Z,7840.00
2018-02-06T11:19:50.431Z,7868.00
2018-02-06T11:20:50.339Z,7952.00
2018-02-06T11:21:50.322Z,8028.00
2018-02-06T11:22:50.269Z,8120.00
2018-02-06T11:23:50.227Z,8260.00
2018-02-06T11:24:50.183Z,8336.00
2018-02-06T11:25:50.138Z,8352.00
2018-02-06T11:26:50.124Z,8248.00
2018-02-06T11:27:50.051Z,8104.00
2018-02-06T11:28:50.006Z,8004.00
2018-02-06T11:29:49.963Z,7976.00
2018-02-06T11:30:49.929Z,7904.00
2018-02-06T11:31:49.875Z,7840.00
2018-02-06T11:32:49.870Z,7844.00
2018-02-06T11:33:49.796Z,7992.00
2018-02-06T11:34:49.756Z,8188.00
2018-02-06T11:35:49.729Z,8336.00
2018-02-06T11:36:49.681Z,8412.00
2018-02-06T11:37:49.631Z,8396.00
2018-02-06T11:38:49.608Z,8264.00
2018-02-06T11:39:49.553Z,8196.00
2018-02-06T11:40:49.511Z,8236.00
2018-02-06T11:41:49.461Z,8372.00
2018-02-06T11:42:49.435Z,8476.00
2018-02-06T11:43:49.396Z,8520.00
2018-02-06T11:44:49.330Z,8480.00
2018-02-06T11:45:49.294Z,8364.00
2018-02-06T11:46:49.256Z,8248.00
2018-02-06T11:47:49.205Z,8220.00
2018-02-06T11:48:49.205Z,8236.00
2018-02-06T11:49:49.117Z,8356.00
2018-02-06T11:50:49.078Z,8520.00
2018-02-06T11:51:49.033Z,8476.00
2018-02-06T11:52:48.999Z,8492.00
2018-02-06T11:53:48.965Z,8536.00
2018-02-06T11:54:48.942Z,8432.00
2018-02-06T11:55:48.872Z,8264.00
2018-02-06T11:56:48.834Z,8032.00
2018-02-06T11:57:48.792Z,7680.00
2018-02-06T11:58:48.747Z,7492.00
2018-02-06T11:59:48.724Z,7388.00
2018-02-06T12:00:48.689Z,7144.00
2018-02-06T12:01:48.616Z,6860.00
2018-02-06T12:02:48.582Z,6632.00
2018-02-06T12:03:48.532Z,6480.00
2018-02-06T12:04:48.531Z,6320.00
2018-02-06T12:05:48.488Z,6220.00
2018-02-06T12:06:48.412Z,6352.00
2018-02-06T12:07:48.362Z,6468.00
2018-02-06T12:08:48.334Z,6708.00
2018-02-06T12:09:48.285Z,6964.00
2018-02-06T12:10:48.240Z,7004.00
2018-02-06T12:11:48.223Z,7116.00
2018-02-06T12:12:48.154Z,7428.00
2018-02-06T12:13:48.120Z,7560.00
2018-02-06T12:14:48.073Z,7516.00
2018-02-06T12:15:48.024Z,7476.00
2018-02-06T12:16:47.982Z,7404.00
2018-02-06T12:17:47.982Z,7284.00
2018-02-06T12:18:47.908Z,7084.00
2018-02-06T12:19:47.861Z,7028.00
2018-02-06T12:20:47.826Z,7248.00
2018-02-06T12:21:47.772Z,7552.00
2018-02-06T12:22:47.736Z,7784.00
2018-02-06T12:23:47.714Z,7916.00
2018-02-06T12:24:47.649Z,7804.00
2018-02-06T12:25:47.602Z,7536.00
2018-02-06T12:26:47.566Z,7360.00
2018-02-06T12:27:47.536Z,7380.00
2018-02-06T12:28:47.524Z,7512.00
2018-02-06T12:29:47.430Z,7408.00
2018-02-06T12:30:47.391Z,7160.00
2018-02-06T12:31:47.346Z,6956.00
2018-02-06T12:32:47.314Z,6668.00
2018-02-06T12:33:47.271Z,6524.00
2018-02-06T12:34:47.237Z,6732.00
2018-02-06T12:35:47.177Z,7180.00
2018-02-06T12:36:47.139Z,7420.00
2018-02-06T12:37:47.105Z,7332.00
2018-02-06T12:38:47.055Z,7112.00
2018-02-06T12:39:47.052Z,6824.00
2018-02-06T12:40:46.980Z,6616.00
2018-02-06T12:41:46.916Z,6552.00
2018-02-06T12:42:46.889Z,6648.00
2018-02-06T12:43:46.851Z,6844.00
2018-02-06T12:44:46.822Z,7060.00
2018-02-06T12:45:46.757Z,7236.00
2018-02-06T12:46:46.731Z,7304.00
2018-02-06T12:47:46.706Z,7420.00
2018-02-06T12:48:46.657Z,7556.00
2018-02-06T12:49:46.605Z,7424.00
2018-02-06T12:50:46.567Z,7020.00
2018-02-06T12:51:46.506Z,6588.00
2018-02-06T12:52:46.479Z,6224.00
2018-02-06T12:53:46.412Z,6000.00
2018-02-06T12:54:46.374Z,5924.00
2018-02-06T12:55:46.357Z,5928.00
2018-02-06T12:56:46.303Z,6076.00
2018-02-06T12:57:46.290Z,6448.00
2018-02-06T12:58:46.213Z,6844.00
2018-02-06T12:59:46.171Z,7088.00
2018-02-06T13:00:46.138Z,7040.00
2018-02-06T13:01:46.066Z,6776.00
2018-02-06T13:02:46.030Z,6480.00
2018-02-06T13:03:45.984Z,6100.00
2018-02-06T13:04:45.944Z,5796.00
2018-02-06T13:05:45.928Z,5652.00
2018-02-06T13:06:45.858Z,5632.00
2018-02-06T13:07:45.830Z,5556.00
2018-02-06T13:08:45.785Z,5428.00
2018-02-06T13:09:45.741Z,5328.00
2018-02-06T13:10:45.710Z,5352.00
2018-02-06T13:11:45.634Z,5532.00
2018-02-06T13:12:45.600Z,5788.00
2018-02-06T13:13:45.558Z,5996.00
2018-02-06T13:14:45.513Z,5908.00
2018-02-06T13:15:45.473Z,5580.00
2018-02-06T13:16:45.472Z,5240.00
2018-02-06T13:17:45.383Z,5008.00
2018-02-06T13:18:45.432Z,4828.00
2018-02-06T13:19:45.307Z,4612.00
2018-02-06T13:20:45.261Z,4368.00
2018-02-06T13:21:45.211Z,4128.00
2018-02-06T13:22:45.190Z,3944.00
2018-02-06T13:23:45.123Z,3832.00
2018-02-06T13:24:45.147Z,3804.00
2018-02-06T13:25:45.038Z,3864.00
2018-02-06T13:26:44.988Z,4012.00
2018-02-06T13:27:44.981Z,4188.00
2018-02-06T13:28:44.908Z,4392.00
2018-02-06T13:29:44.865Z,4604.00
2018-02-06T13:30:44.824Z,4712.00
2018-02-06T13:31:44.777Z,4684.00
2018-02-06T13:32:44.730Z,4584.00
2018-02-06T13:33:44.714Z,4544.00
2018-02-06T13:34:44.646Z,4612.00
2018-02-06T13:35:44.647Z,4720.00
2018-02-06T13:36:44.566Z,4780.00
2018-02-06T13:37:44.529Z,4808.00
2018-02-06T13:38:44.498Z,4804.00
2018-02-06T13:39:44.433Z,4780.00
2018-02-06T13:40:44.386Z,4812.00
2018-02-06T13:41:44.347Z,4872.00
2018-02-06T13:42:44.298Z,4972.00
2018-02-06T13:43:44.285Z,5048.00
2018-02-06T13:44:44.211Z,5148.00
2018-02-06T13:45:44.165Z,5192.00
2018-02-06T13:46:44.123Z,5116.00
2018-02-06T13:47:44.136Z,5040.00
2018-02-06T13:48:44.068Z,4980.00
2018-02-06T13:49:44.001Z,4960.00
2018-02-06T13:50:43.958Z,4960.00
2018-02-06T13:51:43.915Z,4996.00
2018-02-06T13:52:43.873Z,5028.00
2018-02-06T13:53:43.834Z,5068.00
2018-02-06T13:54:43.813Z,5132.00
2018-02-06T13:55:43.735Z,5200.00
2018-02-06T13:56:43.692Z,5204.00
2018-02-06T13:57:43.646Z,5152.00
2018-02-06T13:58:43.609Z,5104.00
2018-02-06T13:59:43.619Z,5028.00
2018-02-06T14:00:43.542Z,4896.00
2018-02-06T14:01:43.484Z,4744.00
2018-02-06T14:02:43.433Z,4608.00
2018-02-06T14:03:43.397Z,4556.00
2018-02-06T14:04:43.344Z,4468.00
2018-02-06T14:05:43.332Z,4400.00
2018-02-06T14:06:43.258Z,4352.00
2018-02-06T14:07:43.217Z,4352.00
2018-02-06T14:08:43.175Z,4432.00
2018-02-06T14:09:43.136Z,4500.00
2018-02-06T14:10:43.115Z,4524.00
2018-02-06T14:11:43.050Z,4556.00
2018-02-06T14:12:43.003Z,4612.00
2018-02-06T14:13:42.965Z,4608.00
2018-02-06T14:14:42.914Z,4556.00
2018-02-06T14:15:42.877Z,4472.00
2018-02-06T14:16:42.853Z,4416.00
2018-02-06T14:17:42.788Z,4344.00
2018-02-06T14:18:42.748Z,4240.00
2018-02-06T14:19:42.701Z,4156.00
2018-02-06T14:20:42.655Z,4064.00
2018-02-06T14:21:42.604Z,3932.00
2018-02-06T14:22:42.587Z,3800.00
2018-02-06T14:23:42.531Z,3700.00
2018-02-06T14:24:42.490Z,3596.00
2018-02-06T14:25:42.439Z,3520.00
2018-02-06T14:26:42.398Z,3500.00
2018-02-06T14:27:42.374Z,3460.00
2018-02-06T14:28:42.305Z,3444.00
2018-02-06T14:29:42.258Z,3448.00